createdAt,value
2023-09-11T00:00:09.794Z,98459.59
2023-09-11T00:02:36.626Z,98450.63
2023-09-11T00:05:03.601Z,98453.75
2023-09-11T00:07:30.204Z,98452.13
2023-09-11T00:09:56.740Z,98441.31
2023-09-11T00:12:23.351Z,98449.38
2023-09-11T00:14:50.017Z,98442.41
2023-09-11T00:17:16.657Z,98438.88
2023-09-11T00:19:43.238Z,98442.78
2023-09-11T00:22:09.732Z,98439.72
2023-09-11T00:24:36.252Z,98439.69
2023-09-11T00:27:02.898Z,98435.25
2023-09-11T00:29:29.532Z,98438.94
2023-09-11T00:31:56.165Z,98426.41
2023-09-11T00:34:23.033Z,98430.47
2023-09-11T00:36:49.521Z,98432.22
2023-09-11T00:39:16.050Z,98431.63
2023-09-11T00:41:44.214Z,98428.53
2023-09-11T00:44:10.976Z,98426.09
2023-09-11T00:46:37.780Z,98433.78
2023-09-11T00:49:04.488Z,98417.38
2023-09-11T00:51:31.186Z,98428.28
2023-09-11T00:53:57.809Z,98421.56
2023-09-11T00:56:24.527Z,98415.31
2023-09-11T00:58:51.732Z,98418.16
2023-09-11T01:01:19.994Z,98412.66
2023-09-11T01:03:47.449Z,98418.88
2023-09-11T01:06:14.149Z,98404.22
2023-09-11T01:08:41.153Z,98412.47
2023-09-11T01:11:07.883Z,98409.75
2023-09-11T01:13:34.857Z,98415.28
2023-09-11T01:16:23.813Z,98404.25
2023-09-11T01:19:13.644Z,98412.34
2023-09-11T01:22:09.428Z,98401.94
2023-09-11T01:25:03.979Z,98405.56
2023-09-11T01:27:49.323Z,98403.28
2023-09-11T01:30:16.569Z,98399.63
2023-09-11T01:32:44.265Z,98392.91
2023-09-11T01:35:10.882Z,98397.88
2023-09-11T01:37:37.387Z,98392.91
2023-09-11T01:40:05.423Z,98393.34
2023-09-11T01:42:37.453Z,98392.78
2023-09-11T01:45:06.220Z,98392.63
2023-09-11T01:47:34.508Z,98393.78
2023-09-11T01:50:02.728Z,98400.47
2023-09-11T01:52:30.683Z,98398.88
2023-09-11T01:54:58.688Z,98405.94
2023-09-11T01:57:30.643Z,98407.19
2023-09-11T01:59:57.234Z,98405.22
2023-09-11T02:02:23.804Z,98410.03
2023-09-11T02:04:51.058Z,98408.84
2023-09-11T02:07:17.581Z,98413.66
2023-09-11T02:09:44.191Z,98409.72
2023-09-11T02:12:10.693Z,98413.19
2023-09-11T02:14:37.222Z,98411.56
2023-09-11T02:17:04.233Z,98411.06
2023-09-11T02:19:32.414Z,98410.06
2023-09-11T02:21:59.298Z,98406.56
2023-09-11T02:24:25.887Z,98406.44
2023-09-11T02:26:52.606Z,98403.16
2023-09-11T02:29:19.233Z,98407.19
2023-09-11T02:31:45.869Z,98410.41
2023-09-11T02:34:12.435Z,98405.56
2023-09-11T02:36:38.981Z,98406.72
2023-09-11T02:39:05.570Z,98403.56
2023-09-11T02:41:32.125Z,98405.03
2023-09-11T02:43:58.646Z,98400.47
2023-09-11T02:46:25.120Z,98400.78
2023-09-11T02:48:51.595Z,98393.97
2023-09-11T02:51:18.771Z,98392.16
2023-09-11T02:53:45.616Z,98386.25
2023-09-11T02:56:12.196Z,98390.13
2023-09-11T02:58:38.782Z,98395.78
2023-09-11T03:01:05.891Z,98397.44
2023-09-11T03:03:32.649Z,98396.16
2023-09-11T03:06:01.513Z,98388.75
2023-09-11T03:08:28.920Z,98390.84
2023-09-11T03:10:55.891Z,98391.78
2023-09-11T03:13:22.385Z,98395.00
2023-09-11T03:15:48.918Z,98391.88
2023-09-11T03:18:15.599Z,98383.63
2023-09-11T03:20:42.268Z,98391.78
2023-09-11T03:23:08.847Z,98380.34
2023-09-11T03:25:39.134Z,98389.06
2023-09-11T03:28:05.726Z,98389.41
2023-09-11T03:30:32.223Z,98379.25
2023-09-11T03:32:58.839Z,98381.75
2023-09-11T03:35:25.546Z,98376.88
2023-09-11T03:37:52.640Z,98369.84
2023-09-11T03:40:21.507Z,98373.34
2023-09-11T03:42:48.419Z,98369.94
2023-09-11T03:45:15.277Z,98382.81
2023-09-11T03:47:42.079Z,98374.59
2023-09-11T03:50:09.051Z,98384.56
2023-09-11T03:52:35.586Z,98382.69
2023-09-11T03:55:02.103Z,98371.91
2023-09-11T03:57:28.925Z,98382.91
2023-09-11T03:59:55.595Z,98370.94
2023-09-11T04:02:22.165Z,98380.91
2023-09-11T04:04:48.733Z,98372.03
2023-09-11T04:07:15.311Z,98368.84
2023-09-11T04:09:41.818Z,98379.19
2023-09-11T04:12:08.560Z,98384.03
2023-09-11T04:14:38.598Z,98379.84
2023-09-11T04:17:05.186Z,98376.94
2023-09-11T04:19:31.685Z,98370.50
2023-09-11T04:21:58.186Z,98378.72
2023-09-11T04:24:24.715Z,98373.88
2023-09-11T04:26:51.256Z,98373.91
2023-09-11T04:29:17.972Z,98372.88
2023-09-11T04:31:44.511Z,98373.25
2023-09-11T04:34:11.106Z,98370.94
2023-09-11T04:36:38.134Z,98371.75
2023-09-11T04:39:07.606Z,98370.50
2023-09-11T04:41:34.141Z,98372.59
2023-09-11T04:44:00.959Z,98371.78
2023-09-11T04:46:27.568Z,98373.41
2023-09-11T04:48:54.296Z,98365.34
2023-09-11T04:51:20.868Z,98372.06
2023-09-11T04:53:47.406Z,98367.44
2023-09-11T04:56:13.974Z,98367.09
2023-09-11T04:58:40.648Z,98377.91
2023-09-11T05:01:09.578Z,98375.00
2023-09-11T05:03:36.167Z,98375.50
2023-09-11T05:06:02.872Z,98375.50
2023-09-11T05:08:36.236Z,98371.75
2023-09-11T05:11:15.887Z,98370.59
2023-09-11T05:13:42.374Z,98379.84
2023-09-11T05:16:08.963Z,98383.22
2023-09-11T05:18:35.524Z,98383.22
2023-09-11T05:21:02.213Z,98378.03
2023-09-11T05:23:28.825Z,98383.34
2023-09-11T05:25:55.340Z,98391.91
2023-09-11T05:28:21.821Z,98382.06
2023-09-11T05:30:50.782Z,98395.75
2023-09-11T05:33:17.349Z,98383.69
2023-09-11T05:35:47.088Z,98384.16
2023-09-11T05:38:13.729Z,98394.00
2023-09-11T05:40:40.307Z,98392.88
2023-09-11T05:43:06.868Z,98394.66
2023-09-11T05:45:33.370Z,98389.34
2023-09-11T05:47:59.937Z,98385.81
2023-09-11T05:50:26.616Z,98397.88
2023-09-11T05:52:55.749Z,98391.56
2023-09-11T05:55:22.273Z,98388.63
2023-09-11T05:57:49.038Z,98389.63
2023-09-11T06:00:15.742Z,98389.56
2023-09-11T06:02:46.397Z,98393.25
2023-09-11T06:05:14.861Z,98381.28
2023-09-11T06:07:41.512Z,98389.03
2023-09-11T06:10:08.442Z,98388.91
2023-09-11T06:12:34.934Z,98387.44
2023-09-11T06:15:01.486Z,98396.88
2023-09-11T06:17:38.281Z,98389.19
2023-09-11T06:20:12.275Z,98389.63
2023-09-11T06:22:39.121Z,98389.38
2023-09-11T06:25:06.144Z,98379.84
2023-09-11T06:27:32.811Z,98385.84
2023-09-11T06:29:59.431Z,98386.16
2023-09-11T06:32:26.255Z,98394.75
2023-09-11T06:34:53.096Z,98399.13
2023-09-11T06:37:19.699Z,98394.66
2023-09-11T06:39:46.286Z,98401.91
2023-09-11T06:42:22.894Z,98401.19
2023-09-11T06:44:51.623Z,98412.09
2023-09-11T06:47:18.865Z,98397.31
2023-09-11T06:49:45.427Z,98396.06
2023-09-11T06:52:11.983Z,98386.91
2023-09-11T06:54:38.477Z,98400.34
2023-09-11T06:57:05.995Z,98391.88
2023-09-11T06:59:32.683Z,98391.59
2023-09-11T07:01:59.269Z,98394.00
2023-09-11T07:04:26.071Z,98394.66
2023-09-11T07:06:52.784Z,98394.41
2023-09-11T07:09:19.300Z,98391.84
2023-09-11T07:11:45.840Z,98397.69
2023-09-11T07:14:19.327Z,98391.00
2023-09-11T07:16:46.069Z,98398.75
2023-09-11T07:19:12.803Z,98394.38
2023-09-11T07:21:39.482Z,98385.91
2023-09-11T07:24:06.372Z,98391.25
2023-09-11T07:26:33.024Z,98391.13
2023-09-11T07:29:03.931Z,98387.81
2023-09-11T07:31:34.409Z,98385.44
2023-09-11T07:34:01.214Z,98389.38
2023-09-11T07:36:29.532Z,98392.00
2023-09-11T07:38:56.221Z,98389.81
2023-09-11T07:41:23.295Z,98387.22
2023-09-11T07:43:51.024Z,98373.66
2023-09-11T07:46:25.820Z,98378.63
2023-09-11T07:48:52.492Z,98376.03
2023-09-11T07:51:19.221Z,98374.09
2023-09-11T07:53:46.007Z,98373.41
2023-09-11T07:56:14.384Z,98379.78
2023-09-11T07:58:42.119Z,98374.81
2023-09-11T08:01:09.044Z,98370.47
2023-09-11T08:03:36.563Z,98378.25
2023-09-11T08:06:06.531Z,98379.00
2023-09-11T08:08:33.489Z,98374.81
2023-09-11T08:11:00.549Z,98372.81
2023-09-11T08:13:27.156Z,98376.69
2023-09-11T08:15:54.313Z,98373.31
2023-09-11T08:18:21.073Z,98372.28
2023-09-11T08:20:47.875Z,98376.81
2023-09-11T08:23:14.819Z,98374.19
2023-09-11T08:25:41.365Z,98376.41
2023-09-11T08:28:08.848Z,98377.25
2023-09-11T08:30:36.237Z,98374.66
2023-09-11T08:33:04.453Z,98377.03
2023-09-11T08:35:32.351Z,98375.88
2023-09-11T08:37:58.925Z,98378.78
2023-09-11T08:40:32.102Z,98371.13
2023-09-11T08:42:59.690Z,98374.91
2023-09-11T08:45:29.474Z,98369.50
2023-09-11T08:47:57.486Z,98381.16
2023-09-11T08:50:31.873Z,98374.91
2023-09-11T08:53:02.324Z,98370.69
2023-09-11T08:55:31.169Z,98371.75
2023-09-11T08:58:03.990Z,98377.63
2023-09-11T09:00:32.750Z,98374.16
2023-09-11T09:03:03.615Z,98380.16
2023-09-11T09:05:33.665Z,98378.66
2023-09-11T09:08:02.647Z,98376.38
2023-09-11T09:10:29.122Z,98370.91
2023-09-11T09:12:55.818Z,98365.69
2023-09-11T09:15:22.900Z,98365.25
2023-09-11T09:17:49.878Z,98358.50
2023-09-11T09:20:18.660Z,98368.94
2023-09-11T09:22:59.409Z,98356.66
2023-09-11T09:25:26.878Z,98356.34
2023-09-11T09:27:54.413Z,98362.22
2023-09-11T09:30:23.056Z,98351.63
2023-09-11T09:32:51.173Z,98348.66
2023-09-11T09:35:23.127Z,98356.28
2023-09-11T09:37:58.208Z,98345.91
2023-09-11T09:40:43.135Z,98349.75
2023-09-11T09:43:17.733Z,98346.44
2023-09-11T09:45:44.472Z,98345.06
2023-09-11T09:48:13.350Z,98334.69
2023-09-11T09:50:51.398Z,98339.25
2023-09-11T09:53:23.011Z,98331.97
2023-09-11T09:55:49.702Z,98335.31
2023-09-11T09:58:16.360Z,98336.75
2023-09-11T10:00:42.978Z,98329.53
2023-09-11T10:03:12.828Z,98329.19
2023-09-11T10:05:41.500Z,98328.25
2023-09-11T10:08:08.973Z,98323.09
2023-09-11T10:10:37.145Z,98318.75
2023-09-11T10:13:08.261Z,98321.09
2023-09-11T10:15:39.670Z,98315.41
2023-09-11T10:18:06.856Z,98310.25
2023-09-11T10:20:33.915Z,98310.78
2023-09-11T10:23:04.213Z,98311.25
2023-09-11T10:25:46.408Z,98307.34
2023-09-11T10:28:28.801Z,98298.19
2023-09-11T10:31:29.582Z,98295.47
2023-09-11T10:33:58.435Z,98291.47
2023-09-11T10:36:32.867Z,98287.66
2023-09-11T10:39:02.396Z,98277.16
2023-09-11T10:41:29.540Z,98274.25
2023-09-11T10:43:56.113Z,98274.56
2023-09-11T10:46:22.600Z,98269.78
2023-09-11T10:48:51.677Z,98261.16
2023-09-11T10:51:18.751Z,98264.28
2023-09-11T10:53:49.086Z,98264.03
2023-09-11T10:56:16.968Z,98265.31
2023-09-11T10:58:44.016Z,98253.34
2023-09-11T11:01:14.587Z,98254.03
2023-09-11T11:03:42.781Z,98256.59
2023-09-11T11:06:14.238Z,98251.19
2023-09-11T11:08:42.005Z,98244.63
2023-09-11T11:11:23.633Z,98230.97
2023-09-11T11:14:16.576Z,98238.31
2023-09-11T11:16:56.027Z,98231.56
2023-09-11T11:20:01.470Z,98237.94
2023-09-11T11:22:35.745Z,98227.81
2023-09-11T11:25:06.956Z,98221.97
2023-09-11T11:27:33.661Z,98225.00
2023-09-11T11:30:01.022Z,98219.94
2023-09-11T11:32:31.519Z,98213.88
2023-09-11T11:35:02.690Z,98212.91
2023-09-11T11:37:32.607Z,98207.09
2023-09-11T11:40:01.610Z,98210.25
2023-09-11T11:42:28.691Z,98213.16
2023-09-11T11:44:56.012Z,98210.75
2023-09-11T11:47:23.132Z,98208.19
2023-09-11T11:49:50.899Z,98203.78
2023-09-11T11:52:17.580Z,98195.59
2023-09-11T11:54:44.128Z,98205.34
2023-09-11T11:57:10.747Z,98199.75
2023-09-11T11:59:39.879Z,98207.47
2023-09-11T12:02:19.223Z,98197.22
2023-09-11T12:04:49.824Z,98204.72
2023-09-11T12:07:17.009Z,98194.00
2023-09-11T12:09:43.650Z,98189.56
2023-09-11T12:12:10.680Z,98191.19
2023-09-11T12:14:37.992Z,98187.84
2023-09-11T12:17:14.177Z,98188.72
2023-09-11T12:19:40.762Z,98189.53
2023-09-11T12:22:09.921Z,98182.97
2023-09-11T12:24:36.902Z,98181.13
2023-09-11T12:27:06.310Z,98183.34
2023-09-11T12:29:33.860Z,98188.34
2023-09-11T12:32:00.704Z,98178.09
2023-09-11T12:34:42.909Z,98182.94
2023-09-11T12:37:09.614Z,98169.84
2023-09-11T12:39:36.116Z,98172.19
2023-09-11T12:42:02.691Z,98164.78
2023-09-11T12:44:29.245Z,98150.66
2023-09-11T12:46:56.000Z,98152.06
2023-09-11T12:49:22.680Z,98153.66
2023-09-11T12:51:49.385Z,98151.69
2023-09-11T12:54:16.481Z,98152.97
2023-09-11T12:56:43.421Z,98149.31
2023-09-11T12:59:11.290Z,98139.69
2023-09-11T13:01:37.829Z,98142.16
2023-09-11T13:04:07.153Z,98138.78
2023-09-11T13:06:33.915Z,98132.69
2023-09-11T13:09:00.542Z,98143.09
2023-09-11T13:11:27.126Z,98137.16
2023-09-11T13:14:12.471Z,98140.88
2023-09-11T13:16:41.490Z,98128.91
2023-09-11T13:19:08.105Z,98127.97
2023-09-11T13:21:34.651Z,98121.25
2023-09-11T13:24:01.655Z,98124.13
2023-09-11T13:26:28.710Z,98120.56
2023-09-11T13:28:55.259Z,98123.78
2023-09-11T13:31:21.751Z,98118.94
2023-09-11T13:33:48.321Z,98113.66
2023-09-11T13:36:15.012Z,98111.41
2023-09-11T13:38:41.880Z,98111.06
2023-09-11T13:41:08.723Z,98104.16
2023-09-11T13:43:35.224Z,98103.22
2023-09-11T13:46:01.789Z,98090.31
2023-09-11T13:48:28.719Z,98091.25
2023-09-11T13:50:55.607Z,98090.69
2023-09-11T13:53:22.173Z,98089.22
2023-09-11T13:55:48.764Z,98083.31
2023-09-11T13:58:15.276Z,98080.25
2023-09-11T14:00:41.822Z,98080.53
2023-09-11T14:03:08.552Z,98076.59
2023-09-11T14:05:45.124Z,98075.78
2023-09-11T14:08:12.231Z,98066.09
2023-09-11T14:10:38.823Z,98072.25
2023-09-11T14:13:05.461Z,98068.31
2023-09-11T14:15:32.054Z,98068.59
2023-09-11T14:17:58.759Z,98061.81
2023-09-11T14:20:25.333Z,98071.09
2023-09-11T14:22:51.913Z,98066.47
2023-09-11T14:25:19.391Z,98063.97
2023-09-11T14:27:46.263Z,98070.28
2023-09-11T14:30:13.334Z,98069.25
2023-09-11T14:32:41.383Z,98062.75
2023-09-11T14:35:08.433Z,98058.66
2023-09-11T14:37:35.030Z,98053.66
2023-09-11T14:40:01.529Z,98054.00
2023-09-11T14:42:28.106Z,98055.91
2023-09-11T14:44:54.642Z,98051.09
2023-09-11T14:47:21.200Z,98051.69
2023-09-11T14:49:48.478Z,98052.44
2023-09-11T14:52:15.015Z,98053.13
2023-09-11T14:54:51.840Z,98046.91
2023-09-11T14:57:22.254Z,98042.69
2023-09-11T14:59:48.881Z,98053.75
2023-09-11T15:02:15.426Z,98049.22
2023-09-11T15:04:49.939Z,98043.47
2023-09-11T15:07:19.376Z,98041.94
2023-09-11T15:09:47.432Z,98046.06
2023-09-11T15:12:14.067Z,98044.84
2023-09-11T15:14:40.795Z,98038.72
2023-09-11T15:17:07.452Z,98039.22
2023-09-11T15:19:34.095Z,98036.41
2023-09-11T15:22:01.341Z,98035.50
2023-09-11T15:24:27.939Z,98032.75
2023-09-11T15:26:54.527Z,98032.41
2023-09-11T15:29:21.165Z,98031.53
2023-09-11T15:32:03.427Z,98034.41
2023-09-11T15:34:35.285Z,98025.25
2023-09-11T15:37:01.912Z,98027.94
2023-09-11T15:39:30.418Z,98026.38
2023-09-11T15:41:56.976Z,98025.16
2023-09-11T15:44:23.542Z,98027.81
2023-09-11T15:46:50.108Z,98020.03
2023-09-11T15:49:16.958Z,98020.78
2023-09-11T15:51:43.679Z,98009.97
2023-09-11T15:54:10.413Z,98015.06
2023-09-11T15:56:37.118Z,98010.38
2023-09-11T15:59:05.068Z,98013.69
2023-09-11T16:01:31.681Z,98014.72
2023-09-11T16:03:58.299Z,98008.41
2023-09-11T16:06:24.968Z,98016.19
2023-09-11T16:08:52.692Z,98008.94
2023-09-11T16:11:19.754Z,98003.34
2023-09-11T16:13:46.207Z,98006.91
2023-09-11T16:16:12.967Z,98007.22
2023-09-11T16:18:39.906Z,98001.75
2023-09-11T16:21:06.796Z,98000.56
2023-09-11T16:23:38.567Z,97992.28
2023-09-11T16:26:05.223Z,97994.94
2023-09-11T16:28:31.713Z,97999.00
2023-09-11T16:30:58.517Z,97998.81
2023-09-11T16:33:25.240Z,97991.78
2023-09-11T16:35:52.425Z,97989.81
2023-09-11T16:38:18.951Z,97990.69
2023-09-11T16:40:45.492Z,97989.56
2023-09-11T16:43:11.956Z,97987.31
2023-09-11T16:45:38.744Z,97991.41
2023-09-11T16:48:06.183Z,97997.84
2023-09-11T16:50:33.019Z,97993.84
2023-09-11T16:52:59.713Z,97996.34
2023-09-11T16:55:26.275Z,97995.16
2023-09-11T16:57:52.865Z,97999.16
2023-09-11T17:00:21.798Z,97991.63
2023-09-11T17:02:48.482Z,97992.09
2023-09-11T17:05:15.131Z,97996.13
2023-09-11T17:07:41.679Z,98005.31
2023-09-11T17:10:09.161Z,98005.34
2023-09-11T17:12:40.727Z,98006.56
2023-09-11T17:15:08.578Z,98002.31
2023-09-11T17:17:35.233Z,98006.81
2023-09-11T17:20:01.744Z,98008.34
2023-09-11T17:22:29.902Z,98000.84
2023-09-11T17:24:57.378Z,98008.84
2023-09-11T17:27:25.127Z,98002.47
2023-09-11T17:29:51.843Z,98000.16
2023-09-11T17:32:18.435Z,98004.53
2023-09-11T17:34:45.444Z,98008.13
2023-09-11T17:37:11.966Z,98001.38
2023-09-11T17:39:38.475Z,97997.81
2023-09-11T17:42:05.534Z,98000.19
2023-09-11T17:44:34.650Z,97994.19
2023-09-11T17:47:01.123Z,97989.44
2023-09-11T17:49:27.818Z,97986.28
2023-09-11T17:51:54.385Z,97985.91
2023-09-11T17:54:20.977Z,97981.13
2023-09-11T17:56:47.664Z,97991.47
2023-09-11T17:59:14.222Z,97994.63
2023-09-11T18:01:41.378Z,97991.84
2023-09-11T18:04:09.702Z,97994.66
2023-09-11T18:06:36.427Z,97992.28
2023-09-11T18:09:03.043Z,98003.41
2023-09-11T18:11:29.975Z,97999.44
2023-09-11T18:13:57.611Z,98003.41
2023-09-11T18:16:24.132Z,98008.56
2023-09-11T18:18:50.747Z,98016.09
2023-09-11T18:21:17.510Z,98020.47
2023-09-11T18:23:44.092Z,98016.06
2023-09-11T18:26:10.630Z,98027.88
2023-09-11T18:28:37.439Z,98037.09
2023-09-11T18:31:04.216Z,98033.94
2023-09-11T18:33:30.998Z,98038.88
2023-09-11T18:36:02.853Z,98042.66
2023-09-11T18:38:32.282Z,98037.41
2023-09-11T18:40:58.882Z,98044.84
2023-09-11T18:43:26.366Z,98049.75
2023-09-11T18:45:53.150Z,98041.22
2023-09-11T18:48:19.945Z,98049.25
2023-09-11T18:50:46.717Z,98047.53
2023-09-11T18:53:13.216Z,98052.56
2023-09-11T18:55:39.698Z,98052.22
2023-09-11T18:58:06.280Z,98058.59
2023-09-11T19:00:32.921Z,98056.44
2023-09-11T19:02:59.666Z,98053.75
2023-09-11T19:05:26.249Z,98048.34
2023-09-11T19:07:52.744Z,98050.50
2023-09-11T19:10:19.342Z,98062.28
2023-09-11T19:12:45.945Z,98068.38
2023-09-11T19:15:12.748Z,98067.66
2023-09-11T19:17:39.767Z,98062.41
2023-09-11T19:20:07.271Z,98062.31
2023-09-11T19:22:33.887Z,98069.56
2023-09-11T19:25:01.141Z,98075.03
2023-09-11T19:27:27.888Z,98066.94
2023-09-11T19:29:54.827Z,98069.59
2023-09-11T19:32:21.459Z,98074.09
2023-09-11T19:34:48.552Z,98067.34
2023-09-11T19:37:15.178Z,98066.88
2023-09-11T19:39:41.781Z,98068.84
2023-09-11T19:42:13.475Z,98069.34
2023-09-11T19:44:40.412Z,98074.88
2023-09-11T19:47:07.126Z,98075.06
2023-09-11T19:49:35.908Z,98073.59
2023-09-11T19:52:04.313Z,98072.06
2023-09-11T19:54:31.556Z,98074.91
2023-09-11T19:57:00.182Z,98069.97
2023-09-11T19:59:30.752Z,98084.16
2023-09-11T20:01:57.661Z,98077.50
2023-09-11T20:04:25.051Z,98076.78
2023-09-11T20:06:52.459Z,98077.94
2023-09-11T20:09:19.431Z,98072.31
2023-09-11T20:11:45.964Z,98073.53
2023-09-11T20:14:12.563Z,98074.63
2023-09-11T20:16:39.121Z,98070.28
2023-09-11T20:19:05.676Z,98071.44
2023-09-11T20:21:32.238Z,98077.69
2023-09-11T20:23:58.845Z,98074.03
2023-09-11T20:26:25.364Z,98071.31
2023-09-11T20:28:51.870Z,98072.22
2023-09-11T20:31:18.450Z,98072.25
2023-09-11T20:33:45.849Z,98070.34
2023-09-11T20:36:17.291Z,98064.00
2023-09-11T20:38:50.142Z,98064.44
2023-09-11T20:41:16.818Z,98066.47
2023-09-11T20:43:46.717Z,98071.94
2023-09-11T20:46:14.267Z,98075.41
2023-09-11T20:48:41.824Z,98077.59
2023-09-11T20:51:12.575Z,98080.19
2023-09-11T20:53:39.191Z,98086.81
2023-09-11T20:56:07.451Z,98089.28
2023-09-11T20:58:34.538Z,98085.06
2023-09-11T21:01:05.647Z,98089.63
2023-09-11T21:03:33.084Z,98084.88
2023-09-11T21:06:00.482Z,98081.78
2023-09-11T21:08:27.236Z,98086.69
2023-09-11T21:10:54.212Z,98077.78
2023-09-11T21:13:24.506Z,98091.81
2023-09-11T21:15:51.628Z,98089.72
2023-09-11T21:18:18.665Z,98081.00
2023-09-11T21:20:45.245Z,98085.59
2023-09-11T21:23:11.774Z,98075.16
2023-09-11T21:25:38.381Z,98081.06
2023-09-11T21:28:05.350Z,98083.75
2023-09-11T21:30:32.621Z,98080.47
2023-09-11T21:32:59.318Z,98083.75
2023-09-11T21:35:26.094Z,98090.38
2023-09-11T21:37:52.598Z,98085.75
2023-09-11T21:40:19.331Z,98093.16
2023-09-11T21:42:45.880Z,98097.94
2023-09-11T21:45:12.537Z,98095.56
2023-09-11T21:47:39.119Z,98096.34
2023-09-11T21:50:05.982Z,98096.13
2023-09-11T21:52:32.485Z,98088.63
2023-09-11T21:54:58.963Z,98085.41
2023-09-11T21:57:25.598Z,98080.47
2023-09-11T21:59:52.181Z,98087.31
2023-09-11T22:02:19.049Z,98086.38
2023-09-11T22:04:51.815Z,98092.25
2023-09-11T22:07:18.435Z,98092.09
2023-09-11T22:09:44.944Z,98084.63
2023-09-11T22:12:13.205Z,98081.16
2023-09-11T22:14:40.267Z,98078.59
2023-09-11T22:17:07.674Z,98078.41
2023-09-11T22:19:35.298Z,98086.06
2023-09-11T22:22:01.823Z,98092.72
2023-09-11T22:24:28.432Z,98096.84
2023-09-11T22:26:57.371Z,98096.91
2023-09-11T22:29:25.529Z,98083.50
2023-09-11T22:31:52.375Z,98082.78
2023-09-11T22:34:19.104Z,98077.63
2023-09-11T22:36:45.731Z,98090.31
2023-09-11T22:39:12.301Z,98094.66
2023-09-11T22:41:38.855Z,98105.06
2023-09-11T22:44:05.680Z,98088.63
2023-09-11T22:46:32.268Z,98088.53
2023-09-11T22:48:58.868Z,98089.31
2023-09-11T22:51:25.425Z,98075.66
2023-09-11T22:53:51.991Z,98076.03
2023-09-11T22:56:18.500Z,98073.63
2023-09-11T22:58:45.308Z,98070.16
2023-09-11T23:01:27.740Z,98076.56
2023-09-11T23:03:54.693Z,98078.66
2023-09-11T23:06:21.401Z,98080.28
2023-09-11T23:08:47.993Z,98084.72
2023-09-11T23:11:14.530Z,98086.03
2023-09-11T23:13:41.071Z,98095.22
2023-09-11T23:16:07.711Z,98088.91
2023-09-11T23:18:34.261Z,98088.38
2023-09-11T23:21:00.871Z,98085.88
2023-09-11T23:23:37.068Z,98083.44
2023-09-11T23:26:05.191Z,98087.19
2023-09-11T23:28:31.694Z,98094.47
2023-09-11T23:30:59.715Z,98089.50
2023-09-11T23:33:27.347Z,98088.88
2023-09-11T23:35:54.434Z,98086.38
2023-09-11T23:38:21.038Z,98083.16
2023-09-11T23:40:47.547Z,98089.44
2023-09-11T23:43:14.042Z,98080.81
2023-09-11T23:45:40.709Z,98081.66
2023-09-11T23:48:07.519Z,98089.75
2023-09-11T23:50:34.157Z,98085.94
2023-09-11T23:53:00.688Z,98079.25
2023-09-11T23:55:29.180Z,98082.06
2023-09-11T23:57:55.818Z,98080.22
